Time;durP1;ratioP1;P1;durP2;ratioP2;P2;SDS_P1;SDS_P2;PMS_P1;PMS_P2;Temp;Humidity;BMP_temperature;BMP_pressure;BME280_temperature;BME280_humidity;BME280_pressure;Samples;Min_cycle;Max_cycle;Signal;HPM_P1;HPM_P2
2023/01/18 00:00:29;;;;;;;14.90;6.43;;;;;;;;;;5071730;28;20238;-78
2023/01/18 00:02:56;;;;;;;6.77;6.07;;;;;;;;;;5074325;28;20214;-78
2023/01/18 00:05:24;;;;;;;8.60;6.00;;;;;;;;;;5073745;28;20265;-79
2023/01/18 00:07:51;;;;;;;7.73;5.70;;;;;;;;;;5074595;28;20563;-78
2023/01/18 00:10:18;;;;;;;9.83;6.40;;;;;;;;;;5054362;28;20315;-78
2023/01/18 00:12:47;;;;;;;8.97;6.00;;;;;;;;;;5054052;28;20212;-79
2023/01/18 00:15:14;;;;;;;7.90;6.00;;;;;;;;;;5053784;28;20243;-78
2023/01/18 00:17:50;;;;;;;7.40;5.93;;;;;;;;;;5068919;28;20198;-78
2023/01/18 00:20:18;;;;;;;8.70;6.03;;;;;;;;;;5073742;28;20266;-78
2023/01/18 00:22:45;;;;;;;7.23;5.50;;;;;;;;;;5064510;28;20205;-79
2023/01/18 00:25:12;;;;;;;7.10;5.60;;;;;;;;;;5071188;28;20238;-78
2023/01/18 00:27:39;;;;;;;8.57;5.80;;;;;;;;;;5073789;28;20253;-79
2023/01/18 00:30:09;;;;;;;7.37;5.57;;;;;;;;;;5060644;28;20226;-79
2023/01/18 00:32:37;;;;;;;8.27;6.60;;;;;;;;;;5074129;28;20208;-78
2023/01/18 00:35:06;;;;;;;6.03;5.43;;;;;;;;;;5073711;28;20241;-78
2023/01/18 00:37:33;;;;;;;9.50;5.97;;;;;;;;;;5073903;28;20737;-79
2023/01/18 00:40:00;;;;;;;9.57;5.67;;;;;;;;;;5073070;28;20245;-78
2023/01/18 00:45:14;;;;;;;6.23;5.60;;;;;;;;;;5073585;28;20234;-79
2023/01/18 00:47:41;;;;;;;11.00;6.00;;;;;;;;;;5073679;28;20667;-79
2023/01/18 00:50:08;;;;;;;6.40;5.60;;;;;;;;;;5073192;28;20242;-78
2023/01/18 00:52:36;;;;;;;6.27;5.33;;;;;;;;;;5073579;28;20207;-79
2023/01/18 00:55:03;;;;;;;5.80;5.23;;;;;;;;;;5073110;28;20247;-79
2023/01/18 00:57:30;;;;;;;7.47;5.60;;;;;;;;;;5073792;28;20656;-79
2023/01/18 00:59:57;;;;;;;6.63;5.33;;;;;;;;;;5073245;28;20237;-79
2023/01/18 01:02:25;;;;;;;7.33;5.77;;;;;;;;;;5072660;28;20198;-79
2023/01/18 01:07:37;;;;;;;7.50;4.90;;;;;;;;;;5073199;28;20272;-80
2023/01/18 01:10:08;;;;;;;7.53;5.53;;;;;;;;;;5072814;28;20239;-79
2023/01/18 01:26:20;;;;;;;7.33;5.33;;;;;;;;;;5052715;28;20244;-79
2023/01/18 01:28:50;;;;;;;7.00;4.77;;;;;;;;;;5053201;28;20209;-79
2023/01/18 01:31:18;;;;;;;5.77;5.17;;;;;;;;;;5052409;28;20239;-79
2023/01/18 01:33:47;;;;;;;7.40;5.50;;;;;;;;;;5052944;28;20214;-79
2023/01/18 01:36:16;;;;;;;8.23;5.80;;;;;;;;;;5052069;28;20311;-80
2023/01/18 01:38:43;;;;;;;6.60;4.73;;;;;;;;;;5053041;28;20208;-79
2023/01/18 01:41:14;;;;;;;5.50;4.90;;;;;;;;;;5070854;28;20248;-79
2023/01/18 01:43:45;;;;;;;5.90;4.80;;;;;;;;;;5072772;28;20192;-79
2023/01/18 01:46:30;;;;;;;6.40;5.67;;;;;;;;;;5054576;28;20243;-79
2023/01/18 01:49:02;;;;;;;5.60;5.10;;;;;;;;;;5053002;28;20557;-79
2023/01/18 01:51:30;;;;;;;5.90;4.97;;;;;;;;;;5052315;28;20246;-79
2023/01/18 01:53:59;;;;;;;5.70;5.07;;;;;;;;;;5051785;28;20216;-79
2023/01/18 01:56:27;;;;;;;6.90;5.60;;;;;;;;;;5062795;28;20266;-79
2023/01/18 01:58:56;;;;;;;8.87;5.17;;;;;;;;;;5067086;28;20559;-78
2023/01/18 02:01:23;;;;;;;5.90;4.97;;;;;;;;;;5066028;28;20718;-79
2023/01/18 02:03:50;;;;;;;7.33;5.20;;;;;;;;;;5064811;28;20693;-79
2023/01/18 02:06:29;;;;;;;8.67;5.10;;;;;;;;;;5071007;23;20254;-80
2023/01/18 02:08:57;;;;;;;6.63;5.40;;;;;;;;;;5028115;28;20199;-80
2023/01/18 02:11:24;;;;;;;10.50;5.30;;;;;;;;;;5012105;28;20246;-80
2023/01/18 02:13:51;;;;;;;6.10;5.50;;;;;;;;;;5044241;28;20207;-79
2023/01/18 02:16:19;;;;;;;7.53;5.13;;;;;;;;;;5031577;28;20248;-80
2023/01/18 02:18:51;;;;;;;6.87;5.70;;;;;;;;;;5032182;28;20213;-80
2023/01/18 02:21:20;;;;;;;5.47;4.97;;;;;;;;;;5031539;28;20244;-80
2023/01/18 02:23:59;;;;;;;5.63;5.13;;;;;;;;;;5030930;28;20216;-79
2023/01/18 02:26:38;;;;;;;5.83;4.80;;;;;;;;;;5012019;28;20254;-79
2023/01/18 02:29:11;;;;;;;6.70;5.23;;;;;;;;;;5012145;28;20208;-79
2023/01/18 02:31:43;;;;;;;8.33;5.77;;;;;;;;;;5016482;28;20240;-79
2023/01/18 02:34:15;;;;;;;7.53;5.23;;;;;;;;;;5031619;28;20233;-79
2023/01/18 02:36:45;;;;;;;6.00;5.37;;;;;;;;;;5031361;28;20236;-79
2023/01/18 02:39:22;;;;;;;6.33;5.47;;;;;;;;;;5031447;28;20262;-80
2023/01/18 02:47:26;;;;;;;6.20;5.60;;;;;;;;;;5031746;28;20244;-79
2023/01/18 02:49:53;;;;;;;7.10;5.53;;;;;;;;;;5031624;28;20234;-79
2023/01/18 02:52:38;;;;;;;8.10;5.23;;;;;;;;;;5031571;28;20209;-79
2023/01/18 02:55:06;;;;;;;7.10;5.70;;;;;;;;;;5031181;28;20648;-79
2023/01/18 02:57:34;;;;;;;7.53;5.30;;;;;;;;;;5031264;28;20232;-80
2023/01/18 03:00:03;;;;;;;6.33;5.73;;;;;;;;;;5030721;28;20692;-79
2023/01/18 03:02:30;;;;;;;8.10;5.90;;;;;;;;;;5031428;28;20253;-80
2023/01/18 03:04:57;;;;;;;10.00;5.20;;;;;;;;;;5031372;28;20449;-79
2023/01/18 03:07:26;;;;;;;8.27;6.00;;;;;;;;;;5030987;28;20631;-80
2023/01/18 03:09:54;;;;;;;10.37;6.17;;;;;;;;;;5030941;28;20255;-79
2023/01/18 03:12:24;;;;;;;6.93;5.87;;;;;;;;;;5031351;28;20209;-79
2023/01/18 03:14:57;;;;;;;6.10;5.57;;;;;;;;;;5031034;28;20265;-80
2023/01/18 03:17:31;;;;;;;6.47;5.70;;;;;;;;;;5031657;28;20228;-80
2023/01/18 03:20:03;;;;;;;8.57;5.87;;;;;;;;;;5031075;28;20248;-79
2023/01/18 03:25:20;;;;;;;6.50;5.40;;;;;;;;;;4979937;28;20256;-80
2023/01/18 03:36:09;;;;;;;7.07;5.23;;;;;;;;;;5033004;28;20260;-79
2023/01/18 03:38:38;;;;;;;8.00;5.20;;;;;;;;;;5034996;28;20228;-79
2023/01/18 03:41:07;;;;;;;7.60;5.50;;;;;;;;;;5034536;28;20234;-79
2023/01/18 03:43:36;;;;;;;7.77;6.03;;;;;;;;;;5034770;28;20213;-79
2023/01/18 03:46:04;;;;;;;6.50;5.53;;;;;;;;;;5034527;28;20607;-79
2023/01/18 03:48:32;;;;;;;7.93;5.83;;;;;;;;;;5034743;28;20209;-80
2023/01/18 03:51:02;;;;;;;6.27;5.43;;;;;;;;;;5034418;28;20234;-80
2023/01/18 03:53:32;;;;;;;6.40;5.47;;;;;;;;;;5034534;28;20220;-80
2023/01/18 03:56:02;;;;;;;7.93;5.73;;;;;;;;;;5034101;28;20236;-79
2023/01/18 03:58:33;;;;;;;8.47;5.60;;;;;;;;;;5034934;28;20637;-79
2023/01/18 04:01:02;;;;;;;8.73;5.50;;;;;;;;;;5033890;28;20237;-79
2023/01/18 04:03:29;;;;;;;8.17;6.00;;;;;;;;;;5034902;28;20208;-79
2023/01/18 04:05:58;;;;;;;7.20;5.23;;;;;;;;;;5033873;28;20645;-79
2023/01/18 04:08:25;;;;;;;6.63;5.37;;;;;;;;;;5034570;28;20242;-79
2023/01/18 04:10:52;;;;;;;5.80;5.30;;;;;;;;;;5034466;28;20236;-79
2023/01/18 04:13:19;;;;;;;8.07;5.40;;;;;;;;;;5034819;28;20211;-79
2023/01/18 04:15:46;;;;;;;7.53;5.80;;;;;;;;;;5034104;28;20236;-79
2023/01/18 04:18:13;;;;;;;6.93;5.10;;;;;;;;;;5034689;28;20207;-79
2023/01/18 04:20:40;;;;;;;7.43;5.30;;;;;;;;;;5033930;28;20241;-79
2023/01/18 04:23:09;;;;;;;6.90;5.27;;;;;;;;;;5034145;28;20216;-79
2023/01/18 04:25:37;;;;;;;5.33;4.93;;;;;;;;;;5033935;28;20249;-79
2023/01/18 04:28:04;;;;;;;6.00;5.37;;;;;;;;;;5034522;28;20216;-80
2023/01/18 04:30:31;;;;;;;6.40;5.57;;;;;;;;;;5030234;28;20232;-80
2023/01/18 04:32:58;;;;;;;6.47;5.57;;;;;;;;;;5033506;28;20212;-80
2023/01/18 04:35:25;;;;;;;7.80;5.67;;;;;;;;;;5033433;28;20241;-80
2023/01/18 04:37:52;;;;;;;8.43;5.30;;;;;;;;;;5033731;28;20236;-83
2023/01/18 04:40:21;;;;;;;8.00;5.90;;;;;;;;;;5033478;28;20708;-79
2023/01/18 04:42:52;;;;;;;7.33;5.73;;;;;;;;;;5034152;28;20221;-79
2023/01/18 04:45:19;;;;;;;9.17;5.97;;;;;;;;;;5027743;28;20658;-79
2023/01/18 04:47:46;;;;;;;7.10;6.03;;;;;;;;;;5013058;28;20237;-79
2023/01/18 04:50:13;;;;;;;8.63;5.47;;;;;;;;;;5013828;28;20292;-79
2023/01/18 04:52:40;;;;;;;6.23;5.20;;;;;;;;;;5014021;28;20632;-79
2023/01/18 04:55:07;;;;;;;8.30;6.10;;;;;;;;;;5013714;28;20241;-79
2023/01/18 04:57:36;;;;;;;6.77;5.80;;;;;;;;;;5014072;28;20240;-79
2023/01/18 05:00:04;;;;;;;8.23;6.00;;;;;;;;;;5013639;28;20237;-79
2023/01/18 05:02:31;;;;;;;8.83;6.07;;;;;;;;;;5024886;28;20208;-79
2023/01/18 05:04:58;;;;;;;9.70;6.50;;;;;;;;;;5033389;28;20237;-79
2023/01/18 05:07:25;;;;;;;8.30;6.47;;;;;;;;;;5033653;28;20237;-79
2023/01/18 05:09:52;;;;;;;8.00;6.77;;;;;;;;;;5048268;28;20235;-78
2023/01/18 05:12:19;;;;;;;8.03;6.63;;;;;;;;;;5053809;28;20628;-80
2023/01/18 05:14:49;;;;;;;10.77;6.87;;;;;;;;;;5032784;28;20260;-79
2023/01/18 05:17:16;;;;;;;10.63;7.33;;;;;;;;;;5025202;28;20224;-79
2023/01/18 05:19:43;;;;;;;8.40;6.20;;;;;;;;;;5029308;28;20202;-78
2023/01/18 05:22:10;;;;;;;7.37;6.10;;;;;;;;;;5033481;28;20294;-80
2023/01/18 05:24:41;;;;;;;9.40;6.97;;;;;;;;;;5033460;28;20209;-79
2023/01/18 05:27:08;;;;;;;7.93;6.33;;;;;;;;;;5033325;28;20280;-80
2023/01/18 05:29:35;;;;;;;8.67;6.60;;;;;;;;;;5032988;28;20212;-79
2023/01/18 05:32:05;;;;;;;12.30;7.00;;;;;;;;;;5033221;28;20203;-80
2023/01/18 05:34:32;;;;;;;9.33;6.13;;;;;;;;;;5032207;28;20202;-81
2023/01/18 05:36:59;;;;;;;9.57;6.33;;;;;;;;;;5031230;28;20235;-80
2023/01/18 05:39:26;;;;;;;10.27;7.00;;;;;;;;;;5023971;28;20225;-79
2023/01/18 05:41:53;;;;;;;10.17;6.90;;;;;;;;;;5036519;28;20237;-80
2023/01/18 05:44:20;;;;;;;10.53;7.27;;;;;;;;;;5045582;28;20212;-80
2023/01/18 05:46:47;;;;;;;10.97;6.53;;;;;;;;;;5044587;28;20241;-79
2023/01/18 05:49:15;;;;;;;9.10;6.37;;;;;;;;;;5045615;28;20210;-80
2023/01/18 05:51:42;;;;;;;9.00;6.37;;;;;;;;;;5045326;28;20237;-79
2023/01/18 05:54:10;;;;;;;11.87;7.13;;;;;;;;;;5044295;28;20212;-79
2023/01/18 05:56:38;;;;;;;6.57;5.87;;;;;;;;;;5043327;28;20724;-80
2023/01/18 05:59:05;;;;;;;8.73;6.87;;;;;;;;;;5039174;28;20696;-80
2023/01/18 06:01:32;;;;;;;11.00;6.80;;;;;;;;;;5031949;28;20249;-81
2023/01/18 06:03:59;;;;;;;8.70;6.00;;;;;;;;;;5032536;28;20213;-80
2023/01/18 06:06:28;;;;;;;8.00;7.10;;;;;;;;;;5031690;28;20712;-80
2023/01/18 06:08:55;;;;;;;11.83;6.77;;;;;;;;;;5032550;28;20213;-80
2023/01/18 06:11:22;;;;;;;9.60;6.63;;;;;;;;;;5031892;28;20237;-80
2023/01/18 06:13:49;;;;;;;9.70;6.83;;;;;;;;;;5032213;28;20288;-82
2023/01/18 06:16:16;;;;;;;12.93;6.70;;;;;;;;;;5031713;28;20244;-81
2023/01/18 06:18:43;;;;;;;8.80;6.83;;;;;;;;;;5031949;28;20217;-82
2023/01/18 06:21:10;;;;;;;9.10;6.67;;;;;;;;;;5031640;28;20265;-81
2023/01/18 06:23:39;;;;;;;10.30;6.87;;;;;;;;;;5032131;28;20210;-81
2023/01/18 06:26:06;;;;;;;13.90;7.07;;;;;;;;;;5031498;28;20248;-81
2023/01/18 06:28:33;;;;;;;10.03;6.90;;;;;;;;;;5032268;28;20194;-80
2023/01/18 06:31:03;;;;;;;7.57;6.07;;;;;;;;;;5031503;28;20237;-80
2023/01/18 06:33:30;;;;;;;9.40;6.00;;;;;;;;;;5032429;28;20202;-81
2023/01/18 06:35:57;;;;;;;7.43;6.10;;;;;;;;;;5031127;28;20724;-81
2023/01/18 06:38:24;;;;;;;11.20;6.47;;;;;;;;;;5031164;28;20209;-82
2023/01/18 06:40:53;;;;;;;11.00;6.50;;;;;;;;;;5024206;28;20229;-81
2023/01/18 06:43:21;;;;;;;7.77;6.20;;;;;;;;;;5045603;28;20213;-81
2023/01/18 06:45:52;;;;;;;7.83;5.90;;;;;;;;;;5031140;28;20248;-80
2023/01/18 06:48:19;;;;;;;8.73;6.30;;;;;;;;;;5031573;28;20753;-81
2023/01/18 06:50:46;;;;;;;8.67;6.00;;;;;;;;;;5030980;28;20317;-81
2023/01/18 06:53:13;;;;;;;9.20;6.07;;;;;;;;;;5031391;28;20217;-82
2023/01/18 06:55:40;;;;;;;9.73;6.20;;;;;;;;;;5030897;28;20259;-82
2023/01/18 06:58:08;;;;;;;7.23;5.70;;;;;;;;;;5031282;28;20214;-82
2023/01/18 07:00:36;;;;;;;9.27;5.10;;;;;;;;;;5030765;28;20237;-82
2023/01/18 07:03:04;;;;;;;8.10;4.83;;;;;;;;;;5031253;28;20206;-81
2023/01/18 07:05:31;;;;;;;7.07;4.90;;;;;;;;;;5030581;28;20648;-81
2023/01/18 07:07:58;;;;;;;9.33;5.60;;;;;;;;;;5031006;28;20245;-81
2023/01/18 07:10:25;;;;;;;5.93;5.30;;;;;;;;;;5031981;28;20238;-81
2023/01/18 07:12:52;;;;;;;8.13;6.20;;;;;;;;;;5034983;28;20213;-81
2023/01/18 07:15:20;;;;;;;7.10;4.97;;;;;;;;;;5034810;28;20247;-81
2023/01/18 07:17:49;;;;;;;9.10;5.60;;;;;;;;;;5035095;28;20233;-80
2023/01/18 07:20:16;;;;;;;9.57;5.10;;;;;;;;;;5035082;28;20241;-82
2023/01/18 07:22:43;;;;;;;7.53;4.80;;;;;;;;;;5035113;28;20235;-81
2023/01/18 07:25:12;;;;;;;11.43;5.40;;;;;;;;;;5034784;28;20260;-81
2023/01/18 07:27:39;;;;;;;7.67;5.37;;;;;;;;;;5035059;28;20233;-81
2023/01/18 07:30:06;;;;;;;8.63;5.47;;;;;;;;;;5034447;28;20233;-81
2023/01/18 07:32:35;;;;;;;7.37;5.03;;;;;;;;;;5034678;28;20204;-81
2023/01/18 07:35:02;;;;;;;13.73;5.50;;;;;;;;;;5020966;28;20352;-81
2023/01/18 07:37:29;;;;;;;7.10;5.47;;;;;;;;;;5014692;28;20229;-81
2023/01/18 07:39:56;;;;;;;7.73;5.33;;;;;;;;;;5014976;28;20242;-80
2023/01/18 07:42:30;;;;;;;6.43;5.13;;;;;;;;;;5014634;28;20233;-81
2023/01/18 07:44:57;;;;;;;8.40;5.00;;;;;;;;;;5015161;28;20237;-81
2023/01/18 07:47:24;;;;;;;7.50;5.00;;;;;;;;;;5042869;28;20232;-81
2023/01/18 07:49:53;;;;;;;5.73;5.13;;;;;;;;;;5054197;28;20259;-81
2023/01/18 07:52:20;;;;;;;9.17;5.60;;;;;;;;;;5054634;28;20213;-81
2023/01/18 07:54:47;;;;;;;10.23;5.17;;;;;;;;;;5054227;28;20245;-81
2023/01/18 07:57:14;;;;;;;5.90;4.60;;;;;;;;;;5054367;28;20241;-81
2023/01/18 07:59:41;;;;;;;7.17;4.93;;;;;;;;;;5054142;28;20217;-81
2023/01/18 08:02:11;;;;;;;6.03;5.07;;;;;;;;;;5035791;28;20229;-80
2023/01/18 08:04:39;;;;;;;5.50;4.93;;;;;;;;;;5049829;28;20669;-81
2023/01/18 08:07:08;;;;;;;6.13;4.57;;;;;;;;;;5066923;22;20239;-81
2023/01/18 08:09:35;;;;;;;8.37;4.80;;;;;;;;;;5046243;28;20203;-81
2023/01/18 08:12:02;;;;;;;7.10;4.93;;;;;;;;;;5048565;28;20204;-82
2023/01/18 08:14:29;;;;;;;5.63;4.60;;;;;;;;;;5038389;28;20209;-82
2023/01/18 08:16:56;;;;;;;10.27;4.97;;;;;;;;;;5051787;28;20237;-80
2023/01/18 08:19:23;;;;;;;5.53;4.90;;;;;;;;;;5051208;28;20204;-82
2023/01/18 08:21:51;;;;;;;6.47;4.20;;;;;;;;;;5053047;28;20603;-82
2023/01/18 08:24:19;;;;;;;8.37;4.73;;;;;;;;;;5054505;28;20212;-83
2023/01/18 08:26:46;;;;;;;6.33;4.37;;;;;;;;;;5054004;28;20241;-82
2023/01/18 08:29:13;;;;;;;8.23;3.87;;;;;;;;;;5058310;28;20204;-82
2023/01/18 08:31:40;;;;;;;7.20;4.20;;;;;;;;;;5060758;28;20229;-82
2023/01/18 08:34:07;;;;;;;4.67;4.13;;;;;;;;;;5065826;28;20216;-83
2023/01/18 08:36:34;;;;;;;8.20;4.87;;;;;;;;;;5057444;28;20244;-82
2023/01/18 08:39:01;;;;;;;9.03;4.17;;;;;;;;;;5054420;28;20210;-82
2023/01/18 08:41:30;;;;;;;4.50;3.90;;;;;;;;;;5053303;28;20240;-82
2023/01/18 08:43:57;;;;;;;4.80;3.63;;;;;;;;;;5053731;28;20612;-82
2023/01/18 08:46:24;;;;;;;5.03;4.60;;;;;;;;;;5054522;28;20237;-81
2023/01/18 08:48:52;;;;;;;10.87;4.80;;;;;;;;;;5058723;28;20818;-80
2023/01/18 08:51:21;;;;;;;7.57;3.70;;;;;;;;;;5052859;28;20329;-83
2023/01/18 08:53:50;;;;;;;6.33;3.80;;;;;;;;;;5056627;28;20216;-82
2023/01/18 08:56:17;;;;;;;8.97;4.37;;;;;;;;;;5054832;28;20310;-82
2023/01/18 08:58:46;;;;;;;5.53;4.00;;;;;;;;;;5058138;28;20217;-82
2023/01/18 09:01:13;;;;;;;9.30;4.30;;;;;;;;;;5054144;28;20617;-82
2023/01/18 09:03:40;;;;;;;5.00;4.50;;;;;;;;;;5054357;28;20211;-82
2023/01/18 09:06:08;;;;;;;7.40;4.03;;;;;;;;;;5052418;28;20229;-82
2023/01/18 09:08:35;;;;;;;4.70;4.13;;;;;;;;;;5053651;28;20631;-82
2023/01/18 09:11:03;;;;;;;5.40;4.10;;;;;;;;;;5058446;28;20236;-82
2023/01/18 09:13:30;;;;;;;5.00;4.50;;;;;;;;;;5055939;28;20247;-82
2023/01/18 09:16:01;;;;;;;7.00;4.37;;;;;;;;;;5057286;28;20241;-82
2023/01/18 09:18:29;;;;;;;5.30;3.97;;;;;;;;;;5054244;28;20208;-81
2023/01/18 09:20:56;;;;;;;5.77;4.20;;;;;;;;;;5052657;28;20705;-82
2023/01/18 09:23:24;;;;;;;5.37;4.20;;;;;;;;;;5052477;28;20239;-82
2023/01/18 09:26:01;;;;;;;10.97;5.17;;;;;;;;;;5052342;28;20764;-79
2023/01/18 09:28:28;;;;;;;6.10;4.23;;;;;;;;;;5052526;28;20213;-80
2023/01/18 09:30:55;;;;;;;13.47;4.17;;;;;;;;;;5052034;28;20929;-79
2023/01/18 09:33:23;;;;;;;3.93;3.53;;;;;;;;;;5051764;28;20217;-79
2023/01/18 09:35:50;;;;;;;5.50;4.20;;;;;;;;;;5052011;28;20242;-79
2023/01/18 09:38:17;;;;;;;8.30;4.03;;;;;;;;;;5052344;28;20580;-80
2023/01/18 09:40:46;;;;;;;5.00;3.63;;;;;;;;;;5051781;28;20242;-80
2023/01/18 09:43:16;;;;;;;10.40;4.37;;;;;;;;;;5052052;28;20664;-80
2023/01/18 09:45:45;;;;;;;9.77;4.33;;;;;;;;;;5034057;28;20238;-80
2023/01/18 09:48:17;;;;;;;3.90;3.60;;;;;;;;;;5032565;28;20234;-80
2023/01/18 09:50:45;;;;;;;4.23;3.87;;;;;;;;;;5031922;28;20241;-81
2023/01/18 09:53:20;;;;;;;5.40;3.70;;;;;;;;;;5032050;28;20207;-81
2023/01/18 09:55:51;;;;;;;6.23;3.97;;;;;;;;;;5033290;28;20241;-80
2023/01/18 09:58:29;;;;;;;10.63;3.93;;;;;;;;;;5032192;28;20223;-80
2023/01/18 10:00:59;;;;;;;7.83;4.20;;;;;;;;;;5031886;28;20242;-80
2023/01/18 10:03:29;;;;;;;7.80;4.70;;;;;;;;;;5031692;28;20231;-80
2023/01/18 10:06:09;;;;;;;9.80;3.60;;;;;;;;;;5033069;28;20237;-79
2023/01/18 10:08:38;;;;;;;14.33;4.00;;;;;;;;;;5063778;28;20208;-80
2023/01/18 10:11:09;;;;;;;7.87;3.80;;;;;;;;;;5076661;28;20244;-80
2023/01/18 10:13:43;;;;;;;5.67;3.83;;;;;;;;;;5077530;28;20193;-79
2023/01/18 10:16:14;;;;;;;5.17;3.77;;;;;;;;;;5077664;28;20240;-80
2023/01/18 10:18:44;;;;;;;3.80;3.50;;;;;;;;;;5076555;28;20235;-79
2023/01/18 10:21:17;;;;;;;4.30;3.90;;;;;;;;;;5075390;28;20256;-80
2023/01/18 10:23:50;;;;;;;6.07;3.90;;;;;;;;;;5073573;28;20224;-80
2023/01/18 10:29:04;;;;;;;6.77;3.90;;;;;;;;;;5071814;28;20617;-79
2023/01/18 10:31:56;;;;;;;6.63;4.27;;;;;;;;;;5069100;28;20232;-81
2023/01/18 10:34:27;;;;;;;4.60;3.77;;;;;;;;;;5070565;28;20213;-79
2023/01/18 10:36:58;;;;;;;4.37;3.97;;;;;;;;;;5081755;28;20224;-80
2023/01/18 10:39:28;;;;;;;6.17;3.97;;;;;;;;;;5081442;28;20292;-79
2023/01/18 10:42:15;;;;;;;4.43;3.80;;;;;;;;;;5080220;28;20213;-79
2023/01/18 10:44:48;;;;;;;5.77;3.50;;;;;;;;;;5079356;28;20204;-81
2023/01/18 10:47:19;;;;;;;5.53;3.70;;;;;;;;;;5081224;28;20308;-79
2023/01/18 10:49:49;;;;;;;6.57;4.20;;;;;;;;;;5080935;28;20209;-81
2023/01/18 10:52:34;;;;;;;10.93;4.43;;;;;;;;;;5082914;28;20213;-79
2023/01/18 10:55:06;;;;;;;11.73;4.20;;;;;;;;;;5080511;28;20235;-80
2023/01/18 10:57:38;;;;;;;4.90;3.77;;;;;;;;;;5081455;28;20225;-80
2023/01/18 11:00:11;;;;;;;8.30;4.10;;;;;;;;;;5072500;28;20244;-80
2023/01/18 11:02:39;;;;;;;6.17;4.30;;;;;;;;;;5072382;28;20228;-80
2023/01/18 11:05:18;;;;;;;6.47;4.07;;;;;;;;;;5071113;28;20680;-80
2023/01/18 11:07:45;;;;;;;5.57;4.30;;;;;;;;;;5071442;28;20233;-79
2023/01/18 11:10:23;;;;;;;8.73;4.13;;;;;;;;;;5070547;28;20601;-79
2023/01/18 11:12:51;;;;;;;4.73;3.30;;;;;;;;;;5071695;28;20204;-80
2023/01/18 11:15:26;;;;;;;3.53;3.23;;;;;;;;;;5063926;28;20229;-80
2023/01/18 11:18:00;;;;;;;6.63;5.03;;;;;;;;;;5062266;28;20701;-81
2023/01/18 11:20:32;;;;;;;10.33;4.40;;;;;;;;;;5070429;28;20232;-81
2023/01/18 11:23:01;;;;;;;9.43;5.10;;;;;;;;;;5060615;28;20235;-80
2023/01/18 11:25:37;;;;;;;4.70;4.07;;;;;;;;;;5060319;28;20236;-80
2023/01/18 11:28:06;;;;;;;8.60;3.50;;;;;;;;;;5070808;28;20224;-80
2023/01/18 11:30:34;;;;;;;4.27;3.83;;;;;;;;;;5070736;28;20779;-80
2023/01/18 11:33:01;;;;;;;11.93;4.10;;;;;;;;;;5070942;28;20206;-80
2023/01/18 11:35:31;;;;;;;6.53;3.93;;;;;;;;;;5052993;28;20736;-80
2023/01/18 11:37:59;;;;;;;3.70;3.40;;;;;;;;;;5052139;28;20706;-81
2023/01/18 11:40:27;;;;;;;7.63;3.83;;;;;;;;;;5051841;28;20321;-80
2023/01/18 11:42:58;;;;;;;4.77;3.93;;;;;;;;;;5050943;28;20233;-80
2023/01/18 11:45:27;;;;;;;9.50;4.00;;;;;;;;;;5050903;28;20233;-81
2023/01/18 11:47:58;;;;;;;4.10;2.90;;;;;;;;;;5051064;28;20226;-81
2023/01/18 11:50:28;;;;;;;4.10;3.53;;;;;;;;;;5050072;28;20240;-81
2023/01/18 11:52:59;;;;;;;8.37;3.97;;;;;;;;;;5050955;28;20202;-81
2023/01/18 11:55:31;;;;;;;5.07;3.57;;;;;;;;;;5050248;28;20697;-81
2023/01/18 11:58:00;;;;;;;6.00;3.90;;;;;;;;;;5054133;28;20593;-82
2023/01/18 12:00:30;;;;;;;3.40;2.83;;;;;;;;;;5054064;28;20267;-81
2023/01/18 12:03:02;;;;;;;4.40;3.40;;;;;;;;;;5054548;28;20252;-84
2023/01/18 12:05:35;;;;;;;6.17;3.07;;;;;;;;;;5054215;28;20237;-82
2023/01/18 12:08:29;;;;;;;4.50;3.10;;;;;;;;;;5054169;28;20238;-81
2023/01/18 12:11:07;;;;;;;12.03;3.30;;;;;;;;;;5018675;28;20235;-82
2023/01/18 12:13:37;;;;;;;4.20;2.83;;;;;;;;;;5055512;28;20207;-80
2023/01/18 12:16:15;;;;;;;5.17;3.10;;;;;;;;;;5053642;28;20249;-81
2023/01/18 12:18:59;;;;;;;9.40;4.00;;;;;;;;;;5054181;28;20247;-80
2023/01/18 12:21:31;;;;;;;4.03;3.13;;;;;;;;;;5053402;28;20245;-80
2023/01/18 12:24:10;;;;;;;4.77;3.33;;;;;;;;;;5053775;28;20237;-80
2023/01/18 12:26:44;;;;;;;3.27;2.90;;;;;;;;;;5052981;28;20244;-80
2023/01/18 12:29:27;;;;;;;3.50;2.90;;;;;;;;;;5058871;28;20245;-86
2023/01/18 12:32:00;;;;;;;2.50;2.30;;;;;;;;;;5073640;28;20220;-80
2023/01/18 12:34:31;;;;;;;3.37;2.60;;;;;;;;;;5073071;28;20202;-81
2023/01/18 12:37:09;;;;;;;3.67;2.40;;;;;;;;;;5073864;28;20229;-80
2023/01/18 12:39:46;;;;;;;2.40;2.17;;;;;;;;;;5073245;28;20643;-80
2023/01/18 12:42:18;;;;;;;4.67;2.50;;;;;;;;;;5073247;28;20636;-80
2023/01/18 12:45:09;;;;;;;2.90;2.57;;;;;;;;;;5073356;28;20225;-81
2023/01/18 12:47:39;;;;;;;5.03;2.80;;;;;;;;;;5077827;28;20225;-81
2023/01/18 12:50:13;;;;;;;4.63;2.90;;;;;;;;;;5082270;28;20243;-81
2023/01/18 12:52:49;;;;;;;3.53;2.60;;;;;;;;;;5076982;28;20192;-81
2023/01/18 12:55:22;;;;;;;4.67;2.80;;;;;;;;;;5075929;28;20260;-80
2023/01/18 12:57:50;;;;;;;5.50;2.90;;;;;;;;;;5073816;28;20233;-81
2023/01/18 13:00:20;;;;;;;4.43;2.87;;;;;;;;;;5072930;28;20598;-81
2023/01/18 13:02:50;;;;;;;4.17;3.00;;;;;;;;;;5052804;28;20205;-87
2023/01/18 13:05:20;;;;;;;3.37;2.90;;;;;;;;;;5052721;28;20696;-82
2023/01/18 13:07:49;;;;;;;3.83;2.83;;;;;;;;;;5051203;28;20649;-83
2023/01/18 13:10:19;;;;;;;2.70;2.50;;;;;;;;;;5036240;28;20239;-83
2023/01/18 13:12:46;;;;;;;2.90;2.43;;;;;;;;;;5052953;28;20339;-83
2023/01/18 13:15:19;;;;;;;4.60;2.80;;;;;;;;;;5052682;28;20244;-83
2023/01/18 13:17:49;;;;;;;3.50;2.73;;;;;;;;;;5052878;28;20267;-82
2023/01/18 13:20:20;;;;;;;4.93;2.80;;;;;;;;;;5052673;28;20581;-90
2023/01/18 13:22:51;;;;;;;4.53;2.77;;;;;;;;;;5052613;28;20691;-82
2023/01/18 13:25:30;;;;;;;5.17;2.73;;;;;;;;;;5032611;28;20241;-83
2023/01/18 13:27:58;;;;;;;3.77;3.23;;;;;;;;;;5047949;28;20260;-85
2023/01/18 13:30:25;;;;;;;6.17;2.97;;;;;;;;;;5052141;28;20244;-84
2023/01/18 13:32:53;;;;;;;8.23;3.40;;;;;;;;;;5052684;28;20223;-86
2023/01/18 13:35:27;;;;;;;5.77;3.10;;;;;;;;;;5052104;28;20248;-84
2023/01/18 13:37:56;;;;;;;5.03;3.50;;;;;;;;;;5039987;28;20260;-84
2023/01/18 13:40:24;;;;;;;6.83;2.87;;;;;;;;;;5071648;28;20327;-85
2023/01/18 13:42:51;;;;;;;9.13;3.30;;;;;;;;;;5072083;28;20215;-86
2023/01/18 13:45:20;;;;;;;8.23;3.10;;;;;;;;;;5054900;28;20233;-85
2023/01/18 13:47:49;;;;;;;5.93;3.67;;;;;;;;;;5052641;28;20238;-84
2023/01/18 13:50:34;;;;;;;9.20;3.47;;;;;;;;;;5051592;28;20232;-85
2023/01/18 13:53:21;;;;;;;3.60;3.30;;;;;;;;;;5055491;28;20211;-87
2023/01/18 13:55:52;;;;;;;5.40;3.53;;;;;;;;;;5064747;28;20715;-86
2023/01/18 13:58:25;;;;;;;6.80;3.60;;;;;;;;;;5052677;28;20239;-84
2023/01/18 14:00:53;;;;;;;3.87;3.33;;;;;;;;;;5050440;28;20319;-85
2023/01/18 14:03:22;;;;;;;5.87;3.73;;;;;;;;;;5050864;28;20227;-86
2023/01/18 14:05:49;;;;;;;6.30;3.93;;;;;;;;;;5051944;28;20241;-85
2023/01/18 14:08:20;;;;;;;8.57;4.23;;;;;;;;;;5059682;23;20232;-78
2023/01/18 14:10:51;;;;;;;7.17;4.20;;;;;;;;;;5039389;28;20279;-79
2023/01/18 14:13:19;;;;;;;7.57;5.27;;;;;;;;;;5031558;28;20253;-79
2023/01/18 14:15:49;;;;;;;5.00;4.50;;;;;;;;;;5031136;28;20275;-80
2023/01/18 14:18:20;;;;;;;8.90;4.43;;;;;;;;;;5031048;28;20720;-80
2023/01/18 14:20:54;;;;;;;13.23;5.20;;;;;;;;;;5040861;28;20228;-80
2023/01/18 14:23:33;;;;;;;8.10;5.43;;;;;;;;;;5044633;28;20216;-80
2023/01/18 14:26:03;;;;;;;7.57;5.00;;;;;;;;;;5051295;28;20240;-80
2023/01/18 14:28:33;;;;;;;11.47;5.33;;;;;;;;;;5051261;28;20636;-79
2023/01/18 14:31:01;;;;;;;6.93;5.43;;;;;;;;;;5050883;28;20236;-79
2023/01/18 14:33:30;;;;;;;11.03;5.93;;;;;;;;;;5052635;28;20214;-88
2023/01/18 14:36:12;;;;;;;10.60;5.03;;;;;;;;;;5058297;28;20260;-96
2023/01/18 14:38:42;;;;;;;10.13;4.83;;;;;;;;;;5058851;28;20224;-88
2023/01/18 14:41:15;;;;;;;6.50;4.90;;;;;;;;;;5060451;28;20238;-91
2023/01/18 14:43:44;;;;;;;11.17;5.30;;;;;;;;;;5054951;28;20236;-94
2023/01/18 14:46:13;;;;;;;7.50;4.67;;;;;;;;;;5058697;28;20253;-94
2023/01/18 14:48:44;;;;;;;10.67;4.97;;;;;;;;;;5060668;28;20680;-94
2023/01/18 14:51:17;;;;;;;12.53;5.23;;;;;;;;;;5059780;28;20240;-94
2023/01/18 14:53:46;;;;;;;9.90;5.87;;;;;;;;;;5060736;28;20297;-93
2023/01/18 14:56:20;;;;;;;7.93;5.33;;;;;;;;;;5059756;28;20718;-92
2023/01/18 14:58:52;;;;;;;9.17;5.30;;;;;;;;;;5057777;28;20229;-95
2023/01/18 15:01:30;;;;;;;9.93;6.37;;;;;;;;;;5057267;28;20307;-94
2023/01/18 15:03:59;;;;;;;11.27;5.80;;;;;;;;;;5060268;28;20252;-94
2023/01/18 15:06:30;;;;;;;10.93;6.10;;;;;;;;;;5060028;28;20736;-95
2023/01/18 15:08:57;;;;;;;10.83;5.87;;;;;;;;;;5060451;28;20235;-95
2023/01/18 15:11:26;;;;;;;9.53;5.13;;;;;;;;;;5057375;28;20238;-95
2023/01/18 15:14:03;;;;;;;12.57;6.00;;;;;;;;;;5063049;28;20209;-95
2023/01/18 15:16:31;;;;;;;8.93;5.40;;;;;;;;;;5059808;28;20236;-95
2023/01/18 15:19:00;;;;;;;13.27;6.17;;;;;;;;;;5060725;28;20210;-96
2023/01/18 15:21:29;;;;;;;9.77;6.33;;;;;;;;;;5059669;28;20230;-96
2023/01/18 15:24:00;;;;;;;9.70;6.17;;;;;;;;;;5060532;28;20236;-95
2023/01/18 15:26:36;;;;;;;9.73;6.67;;;;;;;;;;5058739;28;20235;-94
2023/01/18 15:29:08;;;;;;;8.00;5.17;;;;;;;;;;5059407;28;20648;-93
2023/01/18 15:31:36;;;;;;;7.50;5.10;;;;;;;;;;5055763;28;20289;-93
2023/01/18 15:34:03;;;;;;;5.20;4.40;;;;;;;;;;5061377;28;20208;-92